sensor_id;sensor_type;location;lat;lon;timestamp;temperature;humidity
65419;DHT22;52027;50.658;14.004;2022-09-16T00:01:23;23.07;48.80
65419;DHT22;52027;50.658;14.004;2022-09-16T00:03:52;23.07;48.75
65419;DHT22;52027;50.658;14.004;2022-09-16T00:06:25;23.06;48.71
65419;DHT22;52027;50.658;14.004;2022-09-16T00:08:56;23.06;48.78
65419;DHT22;52027;50.658;14.004;2022-09-16T00:11:22;23.07;48.80
65419;DHT22;52027;50.658;14.004;2022-09-16T00:13:48;23.07;48.81
65419;DHT22;52027;50.658;14.004;2022-09-16T00:16:19;23.06;48.77
65419;DHT22;52027;50.658;14.004;2022-09-16T00:18:45;23.04;48.78
65419;DHT22;52027;50.658;14.004;2022-09-16T00:21:11;23.04;48.77
65419;DHT22;52027;50.658;14.004;2022-09-16T00:23:36;23.04;48.70
65419;DHT22;52027;50.658;14.004;2022-09-16T00:26:03;23.04;48.81
65419;DHT22;52027;50.658;14.004;2022-09-16T00:28:29;23.06;48.76
65419;DHT22;52027;50.658;14.004;2022-09-16T00:30:59;23.04;48.79
65419;DHT22;52027;50.658;14.004;2022-09-16T00:33:24;23.06;48.79
65419;DHT22;52027;50.658;14.004;2022-09-16T00:35:50;23.06;48.77
65419;DHT22;52027;50.658;14.004;2022-09-16T00:38:15;23.04;48.80
65419;DHT22;52027;50.658;14.004;2022-09-16T00:40:45;23.04;48.75
65419;DHT22;52027;50.658;14.004;2022-09-16T00:43:15;22.99;48.79
65419;DHT22;52027;50.658;14.004;2022-09-16T00:45:43;23.02;48.80
65419;DHT22;52027;50.658;14.004;2022-09-16T00:48:14;22.99;48.75
65419;DHT22;52027;50.658;14.004;2022-09-16T00:50:46;23.00;48.76
65419;DHT22;52027;50.658;14.004;2022-09-16T00:53:22;23.00;48.77
65419;DHT22;52027;50.658;14.004;2022-09-16T00:55:50;23.02;48.77
65419;DHT22;52027;50.658;14.004;2022-09-16T01:00:54;23.00;48.78
65419;DHT22;52027;50.658;14.004;2022-09-16T01:03:20;22.99;48.77
65419;DHT22;52027;50.658;14.004;2022-09-16T01:05:45;22.98;48.78
65419;DHT22;52027;50.658;14.004;2022-09-16T01:08:11;22.96;48.84
65419;DHT22;52027;50.658;14.004;2022-09-16T01:10:40;22.98;48.82
65419;DHT22;52027;50.658;14.004;2022-09-16T01:13:07;22.98;48.84
65419;DHT22;52027;50.658;14.004;2022-09-16T01:21:25;22.96;48.83
65419;DHT22;52027;50.658;14.004;2022-09-16T01:34:48;22.95;48.87
65419;DHT22;52027;50.658;14.004;2022-09-16T01:37:31;22.91;48.84
65419;DHT22;52027;50.658;14.004;2022-09-16T01:42:56;22.91;48.94
65419;DHT22;52027;50.658;14.004;2022-09-16T01:45:35;22.91;48.83
65419;DHT22;52027;50.658;14.004;2022-09-16T01:51:04;22.92;48.88
65419;DHT22;52027;50.658;14.004;2022-09-16T01:53:38;22.92;48.87
65419;DHT22;52027;50.658;14.004;2022-09-16T01:56:17;22.91;48.91
65419;DHT22;52027;50.658;14.004;2022-09-16T01:58:50;22.91;48.95
65419;DHT22;52027;50.658;14.004;2022-09-16T02:01:22;22.89;48.86
65419;DHT22;52027;50.658;14.004;2022-09-16T02:03:55;22.88;48.93
65419;DHT22;52027;50.658;14.004;2022-09-16T02:06:23;22.91;48.87
65419;DHT22;52027;50.658;14.004;2022-09-16T02:08:56;22.89;48.87
65419;DHT22;52027;50.658;14.004;2022-09-16T02:11:23;22.89;48.88
65419;DHT22;52027;50.658;14.004;2022-09-16T02:14:14;22.89;48.89
65419;DHT22;52027;50.658;14.004;2022-09-16T02:16:46;22.88;48.89
65419;DHT22;52027;50.658;14.004;2022-09-16T02:19:18;22.86;48.95
65419;DHT22;52027;50.658;14.004;2022-09-16T02:21:45;22.88;48.93
65419;DHT22;52027;50.658;14.004;2022-09-16T02:24:16;22.88;48.97
65419;DHT22;52027;50.658;14.004;2022-09-16T02:26:46;22.88;48.89
65419;DHT22;52027;50.658;14.004;2022-09-16T02:29:20;22.88;48.88
65419;DHT22;52027;50.658;14.004;2022-09-16T02:31:48;22.88;48.90
65419;DHT22;52027;50.658;14.004;2022-09-16T02:34:18;22.85;48.87
65419;DHT22;52027;50.658;14.004;2022-09-16T02:36:51;22.91;48.84
65419;DHT22;52027;50.658;14.004;2022-09-16T02:39:22;22.86;48.84
65419;DHT22;52027;50.658;14.004;2022-09-16T02:41:50;22.88;48.86
65419;DHT22;52027;50.658;14.004;2022-09-16T02:44:15;22.88;48.88
65419;DHT22;52027;50.658;14.004;2022-09-16T02:47:08;22.88;48.89
65419;DHT22;52027;50.658;14.004;2022-09-16T02:49:42;22.85;48.88
65419;DHT22;52027;50.658;14.004;2022-09-16T02:54:53;22.83;48.81
65419;DHT22;52027;50.658;14.004;2022-09-16T02:57:20;22.82;48.83
65419;DHT22;52027;50.658;14.004;2022-09-16T02:59:46;22.81;48.81
65419;DHT22;52027;50.658;14.004;2022-09-16T03:02:11;22.83;48.77
65419;DHT22;52027;50.658;14.004;2022-09-16T03:04:36;22.82;48.79
65419;DHT22;52027;50.658;14.004;2022-09-16T03:07:03;22.82;48.83
65419;DHT22;52027;50.658;14.004;2022-09-16T03:09:30;22.82;48.76
65419;DHT22;52027;50.658;14.004;2022-09-16T03:29:15;22.76;48.80
65419;DHT22;52027;50.658;14.004;2022-09-16T03:31:56;22.76;48.70
65419;DHT22;52027;50.658;14.004;2022-09-16T03:34:30;22.75;48.73
65419;DHT22;52027;50.658;14.004;2022-09-16T03:37:01;22.76;48.74
65419;DHT22;52027;50.658;14.004;2022-09-16T03:39:28;22.75;48.75
65419;DHT22;52027;50.658;14.004;2022-09-16T03:41:59;22.76;48.78
65419;DHT22;52027;50.658;14.004;2022-09-16T03:44:33;22.75;48.70
65419;DHT22;52027;50.658;14.004;2022-09-16T03:46:58;22.75;48.70
65419;DHT22;52027;50.658;14.004;2022-09-16T03:49:24;22.72;48.75
65419;DHT22;52027;50.658;14.004;2022-09-16T03:51:49;22.75;48.74
65419;DHT22;52027;50.658;14.004;2022-09-16T03:54:14;22.75;48.76
65419;DHT22;52027;50.658;14.004;2022-09-16T03:56:40;22.72;48.71
65419;DHT22;52027;50.658;14.004;2022-09-16T03:59:05;22.72;48.75
65419;DHT22;52027;50.658;14.004;2022-09-16T04:01:30;22.73;48.73
65419;DHT22;52027;50.658;14.004;2022-09-16T04:03:56;22.73;48.79
65419;DHT22;52027;50.658;14.004;2022-09-16T04:06:22;22.75;48.82
65419;DHT22;52027;50.658;14.004;2022-09-16T04:08:47;22.75;48.78
65419;DHT22;52027;50.658;14.004;2022-09-16T04:11:15;22.73;48.80
65419;DHT22;52027;50.658;14.004;2022-09-16T04:13:40;22.73;48.79
65419;DHT22;52027;50.658;14.004;2022-09-16T04:16:05;22.71;48.73
65419;DHT22;52027;50.658;14.004;2022-09-16T04:18:32;22.71;48.76
65419;DHT22;52027;50.658;14.004;2022-09-16T04:20:58;22.72;48.82
65419;DHT22;52027;50.658;14.004;2022-09-16T04:23:25;22.73;48.80
65419;DHT22;52027;50.658;14.004;2022-09-16T04:25:55;22.73;48.92
65419;DHT22;52027;50.658;14.004;2022-09-16T04:28:21;22.72;48.94
65419;DHT22;52027;50.658;14.004;2022-09-16T04:30:47;22.72;48.96
65419;DHT22;52027;50.658;14.004;2022-09-16T04:33:12;22.73;48.94
65419;DHT22;52027;50.658;14.004;2022-09-16T04:35:37;22.71;48.87
65419;DHT22;52027;50.658;14.004;2022-09-16T04:38:02;22.72;48.76
65419;DHT22;52027;50.658;14.004;2022-09-16T04:40:28;22.72;48.80
65419;DHT22;52027;50.658;14.004;2022-09-16T04:42:53;22.68;48.76
65419;DHT22;52027;50.658;14.004;2022-09-16T04:45:18;22.68;48.80
65419;DHT22;52027;50.658;14.004;2022-09-16T04:47:44;22.68;48.85
65419;DHT22;52027;50.658;14.004;2022-09-16T04:50:09;22.69;48.95
65419;DHT22;52027;50.658;14.004;2022-09-16T04:52:35;22.69;48.96
65419;DHT22;52027;50.658;14.004;2022-09-16T04:55:01;22.71;49.00
65419;DHT22;52027;50.658;14.004;2022-09-16T04:57:30;22.72;49.02
65419;DHT22;52027;50.658;14.004;2022-09-16T04:59:56;22.72;49.03
65419;DHT22;52027;50.658;14.004;2022-09-16T05:02:21;22.69;48.96
65419;DHT22;52027;50.658;14.004;2022-09-16T05:04:54;22.71;48.99
65419;DHT22;52027;50.658;14.004;2022-09-16T05:07:28;22.71;48.95
65419;DHT22;52027;50.658;14.004;2022-09-16T05:09:54;22.69;48.95
65419;DHT22;52027;50.658;14.004;2022-09-16T05:12:20;22.72;48.92
65419;DHT22;52027;50.658;14.004;2022-09-16T05:14:45;22.73;49.02
65419;DHT22;52027;50.658;14.004;2022-09-16T05:17:10;22.72;49.09
65419;DHT22;52027;50.658;14.004;2022-09-16T05:19:36;22.71;49.08
65419;DHT22;52027;50.658;14.004;2022-09-16T05:22:01;22.72;49.23
65419;DHT22;52027;50.658;14.004;2022-09-16T05:24:33;22.72;49.16
65419;DHT22;52027;50.658;14.004;2022-09-16T05:26:59;22.72;49.23
65419;DHT22;52027;50.658;14.004;2022-09-16T05:29:24;22.71;49.21
65419;DHT22;52027;50.658;14.004;2022-09-16T05:31:50;22.73;49.26
65419;DHT22;52027;50.658;14.004;2022-09-16T05:34:18;22.75;49.28
65419;DHT22;52027;50.658;14.004;2022-09-16T05:36:44;22.75;49.30
65419;DHT22;52027;50.658;14.004;2022-09-16T05:39:12;22.73;49.24
65419;DHT22;52027;50.658;14.004;2022-09-16T05:41:37;22.75;49.29
65419;DHT22;52027;50.658;14.004;2022-09-16T05:44:03;22.76;49.34
65419;DHT22;52027;50.658;14.004;2022-09-16T05:46:28;22.76;49.25
65419;DHT22;52027;50.658;14.004;2022-09-16T05:48:54;22.75;49.21
65419;DHT22;52027;50.658;14.004;2022-09-16T05:51:21;22.81;49.63
65419;DHT22;52027;50.658;14.004;2022-09-16T05:53:48;22.82;49.73
65419;DHT22;52027;50.658;14.004;2022-09-16T05:56:22;22.85;49.68
65419;DHT22;52027;50.658;14.004;2022-09-16T05:58:52;22.85;49.60
65419;DHT22;52027;50.658;14.004;2022-09-16T06:01:20;22.88;49.34
65419;DHT22;52027;50.658;14.004;2022-09-16T06:03:53;22.89;49.28
65419;DHT22;52027;50.658;14.004;2022-09-16T06:06:23;22.92;49.03
65419;DHT22;52027;50.658;14.004;2022-09-16T06:08:49;22.91;48.98
65419;DHT22;52027;50.658;14.004;2022-09-16T06:11:16;22.92;48.87
65419;DHT22;52027;50.658;14.004;2022-09-16T06:13:42;22.86;49.07
65419;DHT22;52027;50.658;14.004;2022-09-16T06:16:11;22.86;49.40
65419;DHT22;52027;50.658;14.004;2022-09-16T06:18:38;22.86;49.45
65419;DHT22;52027;50.658;14.004;2022-09-16T06:21:09;22.85;49.39
65419;DHT22;52027;50.658;14.004;2022-09-16T06:23:35;22.83;49.31
65419;DHT22;52027;50.658;14.004;2022-09-16T06:26:03;22.86;48.47
65419;DHT22;52027;50.658;14.004;2022-09-16T06:28:30;22.79;48.10
65419;DHT22;52027;50.658;14.004;2022-09-16T06:31:10;22.79;48.92
65419;DHT22;52027;50.658;14.004;2022-09-16T06:33:36;22.81;49.12
65419;DHT22;52027;50.658;14.004;2022-09-16T06:36:13;22.81;48.77
65419;DHT22;52027;50.658;14.004;2022-09-16T06:38:39;22.81;48.88
65419;DHT22;52027;50.658;14.004;2022-09-16T06:41:07;22.85;49.29
65419;DHT22;52027;50.658;14.004;2022-09-16T06:43:33;22.85;49.13
65419;DHT22;52027;50.658;14.004;2022-09-16T06:46:23;22.86;49.01
65419;DHT22;52027;50.658;14.004;2022-09-16T06:48:50;22.88;49.17
65419;DHT22;52027;50.658;14.004;2022-09-16T06:51:22;22.86;48.77
65419;DHT22;52027;50.658;14.004;2022-09-16T06:53:49;22.91;48.29
65419;DHT22;52027;50.658;14.004;2022-09-16T06:56:16;22.92;48.47
65419;DHT22;52027;50.658;14.004;2022-09-16T06:58:44;22.95;48.80
65419;DHT22;52027;50.658;14.004;2022-09-16T07:01:16;22.96;48.71
65419;DHT22;52027;50.658;14.004;2022-09-16T07:03:44;22.99;48.25
65419;DHT22;52027;50.658;14.004;2022-09-16T07:06:10;23.00;48.26
65419;DHT22;52027;50.658;14.004;2022-09-16T07:08:37;23.03;48.18
65419;DHT22;52027;50.658;14.004;2022-09-16T07:13:29;23.07;48.03
65419;DHT22;52027;50.658;14.004;2022-09-16T07:16:01;23.10;47.99
65419;DHT22;52027;50.658;14.004;2022-09-16T07:18:30;23.10;47.81
65419;DHT22;52027;50.658;14.004;2022-09-16T07:21:05;23.13;47.70
65419;DHT22;52027;50.658;14.004;2022-09-16T07:23:33;23.14;47.66
65419;DHT22;52027;50.658;14.004;2022-09-16T07:26:01;23.16;47.84
65419;DHT22;52027;50.658;14.004;2022-09-16T07:28:26;23.17;47.97
65419;DHT22;52027;50.658;14.004;2022-09-16T07:30:52;23.17;47.79
65419;DHT22;52027;50.658;14.004;2022-09-16T07:33:17;23.20;47.60
65419;DHT22;52027;50.658;14.004;2022-09-16T07:35:43;23.20;47.52
65419;DHT22;52027;50.658;14.004;2022-09-16T07:38:08;23.22;47.52
65419;DHT22;52027;50.658;14.004;2022-09-16T07:40:33;23.24;47.35
65419;DHT22;52027;50.658;14.004;2022-09-16T07:42:58;23.23;47.24
65419;DHT22;52027;50.658;14.004;2022-09-16T07:45:24;23.22;45.89
65419;DHT22;52027;50.658;14.004;2022-09-16T07:47:49;23.20;46.31
65419;DHT22;52027;50.658;14.004;2022-09-16T07:50:15;23.22;46.23
65419;DHT22;52027;50.658;14.004;2022-09-16T07:52:40;23.20;46.19
65419;DHT22;52027;50.658;14.004;2022-09-16T07:55:06;23.22;45.93
65419;DHT22;52027;50.658;14.004;2022-09-16T07:57:36;23.23;45.98
65419;DHT22;52027;50.658;14.004;2022-09-16T08:00:03;23.20;46.09
65419;DHT22;52027;50.658;14.004;2022-09-16T08:02:29;23.24;46.45
65419;DHT22;52027;50.658;14.004;2022-09-16T08:04:54;23.24;46.31
65419;DHT22;52027;50.658;14.004;2022-09-16T08:07:19;23.26;46.36
65419;DHT22;52027;50.658;14.004;2022-09-16T08:09:45;23.27;46.25
65419;DHT22;52027;50.658;14.004;2022-09-16T08:12:14;23.28;46.22
65419;DHT22;52027;50.658;14.004;2022-09-16T08:14:40;23.30;46.28
65419;DHT22;52027;50.658;14.004;2022-09-16T08:17:05;23.31;46.24
65419;DHT22;52027;50.658;14.004;2022-09-16T08:19:31;23.28;46.40
65419;DHT22;52027;50.658;14.004;2022-09-16T08:21:56;23.30;46.07
65419;DHT22;52027;50.658;14.004;2022-09-16T08:24:22;23.33;45.85
65419;DHT22;52027;50.658;14.004;2022-09-16T08:26:47;23.33;45.90
65419;DHT22;52027;50.658;14.004;2022-09-16T08:29:13;23.34;45.41
65419;DHT22;52027;50.658;14.004;2022-09-16T08:31:38;23.34;45.22
65419;DHT22;52027;50.658;14.004;2022-09-16T08:34:04;23.33;45.29
65419;DHT22;52027;50.658;14.004;2022-09-16T08:36:29;23.36;45.64
65419;DHT22;52027;50.658;14.004;2022-09-16T08:38:55;23.37;45.48
65419;DHT22;52027;50.658;14.004;2022-09-16T08:44:41;23.39;45.46
65419;DHT22;52027;50.658;14.004;2022-09-16T08:50:02;23.41;45.48
65419;DHT22;52027;50.658;14.004;2022-09-16T08:52:32;23.46;44.61
65419;DHT22;52027;50.658;14.004;2022-09-16T08:55:26;23.48;44.56
65419;DHT22;52027;50.658;14.004;2022-09-16T08:58:04;23.47;44.54
65419;DHT22;52027;50.658;14.004;2022-09-16T09:00:31;23.47;43.27
65419;DHT22;52027;50.658;14.004;2022-09-16T09:05:53;23.39;43.14
65419;DHT22;52027;50.658;14.004;2022-09-16T09:19:34;23.16;42.83
65419;DHT22;52027;50.658;14.004;2022-09-16T09:28:00;23.12;43.35
65419;DHT22;52027;50.658;14.004;2022-09-16T09:30:29;23.13;43.19
65419;DHT22;52027;50.658;14.004;2022-09-16T09:40:49;23.10;42.39
65419;DHT22;52027;50.658;14.004;2022-09-16T09:43:33;23.07;42.42
65419;DHT22;52027;50.658;14.004;2022-09-16T09:48:45;23.03;42.30
65419;DHT22;52027;50.658;14.004;2022-09-16T09:51:19;23.06;42.60
65419;DHT22;52027;50.658;14.004;2022-09-16T09:53:50;23.07;42.55
65419;DHT22;52027;50.658;14.004;2022-09-16T09:56:21;23.10;42.48
65419;DHT22;52027;50.658;14.004;2022-09-16T10:01:53;23.16;42.23
65419;DHT22;52027;50.658;14.004;2022-09-16T10:04:19;23.19;41.83
65419;DHT22;52027;50.658;14.004;2022-09-16T10:06:46;23.17;41.62
65419;DHT22;52027;50.658;14.004;2022-09-16T10:09:14;23.17;41.16
65419;DHT22;52027;50.658;14.004;2022-09-16T10:11:51;23.14;41.36
65419;DHT22;52027;50.658;14.004;2022-09-16T10:14:29;23.14;41.35
65419;DHT22;52027;50.658;14.004;2022-09-16T10:16:56;23.12;41.17
65419;DHT22;52027;50.658;14.004;2022-09-16T10:19:26;23.09;41.35
65419;DHT22;52027;50.658;14.004;2022-09-16T10:21:54;23.10;41.15
65419;DHT22;52027;50.658;14.004;2022-09-16T10:24:36;23.12;40.95
65419;DHT22;52027;50.658;14.004;2022-09-16T10:27:18;23.09;41.20
65419;DHT22;52027;50.658;14.004;2022-09-16T10:29:44;23.09;41.00
65419;DHT22;52027;50.658;14.004;2022-09-16T10:32:15;23.12;41.14
65419;DHT22;52027;50.658;14.004;2022-09-16T10:34:41;23.13;41.06
65419;DHT22;52027;50.658;14.004;2022-09-16T10:39:38;23.22;41.64
65419;DHT22;52027;50.658;14.004;2022-09-16T10:42:15;23.26;41.66
65419;DHT22;52027;50.658;14.004;2022-09-16T10:44:42;23.28;41.95
65419;DHT22;52027;50.658;14.004;2022-09-16T10:47:22;23.34;41.87
65419;DHT22;52027;50.658;14.004;2022-09-16T10:49:55;23.37;41.73
65419;DHT22;52027;50.658;14.004;2022-09-16T10:52:23;23.41;41.52
65419;DHT22;52027;50.658;14.004;2022-09-16T10:54:49;23.48;41.42
65419;DHT22;52027;50.658;14.004;2022-09-16T10:57:30;23.53;41.12
65419;DHT22;52027;50.658;14.004;2022-09-16T11:25:26;23.88;41.63
65419;DHT22;52027;50.658;14.004;2022-09-16T11:30:53;23.95;41.68
65419;DHT22;52027;50.658;14.004;2022-09-16T11:33:42;23.98;42.21
65419;DHT22;52027;50.658;14.004;2022-09-16T11:36:33;24.05;42.26
65419;DHT22;52027;50.658;14.004;2022-09-16T11:39:20;24.06;42.10
65419;DHT22;52027;50.658;14.004;2022-09-16T11:44:43;24.13;42.21
65419;DHT22;52027;50.658;14.004;2022-09-16T11:55:32;24.13;41.96
65419;DHT22;52027;50.658;14.004;2022-09-16T11:58:20;24.16;41.48
65419;DHT22;52027;50.658;14.004;2022-09-16T12:00:47;24.15;42.12
65419;DHT22;52027;50.658;14.004;2022-09-16T12:06:12;24.12;40.60
65419;DHT22;52027;50.658;14.004;2022-09-16T12:08:59;24.10;39.92
65419;DHT22;52027;50.658;14.004;2022-09-16T12:11:28;24.10;40.07
65419;DHT22;52027;50.658;14.004;2022-09-16T12:14:03;24.05;39.25
65419;DHT22;52027;50.658;14.004;2022-09-16T12:16:44;24.05;38.76
65419;DHT22;52027;50.658;14.004;2022-09-16T12:19:16;24.02;39.18
65419;DHT22;52027;50.658;14.004;2022-09-16T12:21:48;24.06;39.75
65419;DHT22;52027;50.658;14.004;2022-09-16T12:27:08;24.06;39.58
65419;DHT22;52027;50.658;14.004;2022-09-16T12:29:43;24.06;39.17
65419;DHT22;52027;50.658;14.004;2022-09-16T12:32:22;24.06;39.29
65419;DHT22;52027;50.658;14.004;2022-09-16T12:34:55;24.04;38.98
65419;DHT22;52027;50.658;14.004;2022-09-16T12:37:50;24.02;38.76
65419;DHT22;52027;50.658;14.004;2022-09-16T12:40:20;23.95;39.05
65419;DHT22;52027;50.658;14.004;2022-09-16T12:54:27;24.08;40.45
65419;DHT22;52027;50.658;14.004;2022-09-16T13:02:17;24.19;40.72
65419;DHT22;52027;50.658;14.004;2022-09-16T13:04:56;24.23;40.80
65419;DHT22;52027;50.658;14.004;2022-09-16T13:07:31;24.30;41.05
65419;DHT22;52027;50.658;14.004;2022-09-16T13:10:04;24.37;40.98
65419;DHT22;52027;50.658;14.004;2022-09-16T13:12:31;24.39;40.83
65419;DHT22;52027;50.658;14.004;2022-09-16T13:14:59;24.44;40.78
65419;DHT22;52027;50.658;14.004;2022-09-16T13:17:33;24.47;40.78
65419;DHT22;52027;50.658;14.004;2022-09-16T13:20:14;24.50;40.99
65419;DHT22;52027;50.658;14.004;2022-09-16T13:25:41;24.53;41.14
65419;DHT22;52027;50.658;14.004;2022-09-16T13:33:38;24.57;41.38
65419;DHT22;52027;50.658;14.004;2022-09-16T13:38:45;24.60;41.44
65419;DHT22;52027;50.658;14.004;2022-09-16T13:41:13;24.57;41.41
65419;DHT22;52027;50.658;14.004;2022-09-16T13:46:09;24.59;41.44
65419;DHT22;52027;50.658;14.004;2022-09-16T13:48:45;24.56;41.57
65419;DHT22;52027;50.658;14.004;2022-09-16T13:51:17;24.54;41.57
65419;DHT22;52027;50.658;14.004;2022-09-16T13:53:48;24.54;41.44
65419;DHT22;52027;50.658;14.004;2022-09-16T13:59:04;24.53;41.57
65419;DHT22;52027;50.658;14.004;2022-09-16T14:01:44;24.54;41.54
65419;DHT22;52027;50.658;14.004;2022-09-16T14:06:55;24.53;41.64
65419;DHT22;52027;50.658;14.004;2022-09-16T14:14:59;24.52;41.52
65419;DHT22;52027;50.658;14.004;2022-09-16T14:17:26;24.53;41.63
65419;DHT22;52027;50.658;14.004;2022-09-16T14:19:57;24.56;41.71
65419;DHT22;52027;50.658;14.004;2022-09-16T14:22:23;24.56;41.60
65419;DHT22;52027;50.658;14.004;2022-09-16T14:24:52;24.56;41.63
65419;DHT22;52027;50.658;14.004;2022-09-16T14:30:00;24.59;41.56
65419;DHT22;52027;50.658;14.004;2022-09-16T14:32:31;24.56;41.56
65419;DHT22;52027;50.658;14.004;2022-09-16T14:35:01;24.56;41.52
65419;DHT22;52027;50.658;14.004;2022-09-16T14:37:29;24.57;41.59
65419;DHT22;52027;50.658;14.004;2022-09-16T14:40:02;24.59;41.66
65419;DHT22;52027;50.658;14.004;2022-09-16T14:42:28;24.54;41.69
65419;DHT22;52027;50.658;14.004;2022-09-16T14:44:55;24.56;41.81
65419;DHT22;52027;50.658;14.004;2022-09-16T14:47:32;24.54;41.71
65419;DHT22;52027;50.658;14.004;2022-09-16T14:50:10;24.54;41.77
65419;DHT22;52027;50.658;14.004;2022-09-16T14:52:37;24.54;41.80
65419;DHT22;52027;50.658;14.004;2022-09-16T14:55:08;24.53;41.70
65419;DHT22;52027;50.658;14.004;2022-09-16T14:57:37;24.56;41.74
65419;DHT22;52027;50.658;14.004;2022-09-16T15:00:04;24.57;41.83
65419;DHT22;52027;50.658;14.004;2022-09-16T15:03:02;24.56;41.82
65419;DHT22;52027;50.658;14.004;2022-09-16T15:05:38;24.59;41.79
65419;DHT22;52027;50.658;14.004;2022-09-16T15:08:30;24.54;41.76
65419;DHT22;52027;50.658;14.004;2022-09-16T15:11:00;24.54;41.77
65419;DHT22;52027;50.658;14.004;2022-09-16T15:13:29;24.53;41.71
65419;DHT22;52027;50.658;14.004;2022-09-16T15:16:02;24.53;41.76
65419;DHT22;52027;50.658;14.004;2022-09-16T15:18:34;24.52;41.80
65419;DHT22;52027;50.658;14.004;2022-09-16T15:21:17;24.52;41.83
65419;DHT22;52027;50.658;14.004;2022-09-16T15:23:49;24.49;41.77
65419;DHT22;52027;50.658;14.004;2022-09-16T15:28:53;24.47;41.88
65419;DHT22;52027;50.658;14.004;2022-09-16T15:31:37;24.46;41.91
65419;DHT22;52027;50.658;14.004;2022-09-16T15:34:20;24.41;41.95
65419;DHT22;52027;50.658;14.004;2022-09-16T15:36:51;24.41;41.95
65419;DHT22;52027;50.658;14.004;2022-09-16T15:44:37;24.30;42.17
65419;DHT22;52027;50.658;14.004;2022-09-16T15:47:19;24.30;42.17
65419;DHT22;52027;50.658;14.004;2022-09-16T15:49:47;24.27;42.23
65419;DHT22;52027;50.658;14.004;2022-09-16T15:52:13;24.25;42.24
65419;DHT22;52027;50.658;14.004;2022-09-16T15:54:48;24.26;42.30
65419;DHT22;52027;50.658;14.004;2022-09-16T15:57:37;24.23;42.28
65419;DHT22;52027;50.658;14.004;2022-09-16T16:00:06;24.23;42.34
65419;DHT22;52027;50.658;14.004;2022-09-16T16:05:26;24.22;42.34
65419;DHT22;52027;50.658;14.004;2022-09-16T16:07:56;24.23;42.25
65419;DHT22;52027;50.658;14.004;2022-09-16T16:10:27;24.23;42.14
65419;DHT22;52027;50.658;14.004;2022-09-16T16:12:54;24.25;42.31
65419;DHT22;52027;50.658;14.004;2022-09-16T16:15:24;24.25;42.24
65419;DHT22;52027;50.658;14.004;2022-09-16T16:17:52;24.26;42.15
65419;DHT22;52027;50.658;14.004;2022-09-16T16:20:18;24.25;42.31
65419;DHT22;52027;50.658;14.004;2022-09-16T16:22:45;24.23;42.37
65419;DHT22;52027;50.658;14.004;2022-09-16T16:25:11;24.25;42.18
65419;DHT22;52027;50.658;14.004;2022-09-16T16:27:38;24.25;42.27
65419;DHT22;52027;50.658;14.004;2022-09-16T16:30:04;24.25;42.25
65419;DHT22;52027;50.658;14.004;2022-09-16T16:32:30;24.23;42.27
65419;DHT22;52027;50.658;14.004;2022-09-16T16:34:56;24.20;42.25
65419;DHT22;52027;50.658;14.004;2022-09-16T16:37:24;24.23;42.34
65419;DHT22;52027;50.658;14.004;2022-09-16T16:39:50;24.20;42.40
65419;DHT22;52027;50.658;14.004;2022-09-16T16:42:15;24.20;42.35
65419;DHT22;52027;50.658;14.004;2022-09-16T16:44:41;24.20;42.38
65419;DHT22;52027;50.658;14.004;2022-09-16T16:47:08;24.17;42.39
65419;DHT22;52027;50.658;14.004;2022-09-16T16:49:33;24.17;42.48
65419;DHT22;52027;50.658;14.004;2022-09-16T16:51:59;24.19;42.48
65419;DHT22;52027;50.658;14.004;2022-09-16T16:54:25;24.16;42.50
65419;DHT22;52027;50.658;14.004;2022-09-16T16:56:52;24.16;42.46
65419;DHT22;52027;50.658;14.004;2022-09-16T16:59:17;24.12;42.52
65419;DHT22;52027;50.658;14.004;2022-09-16T17:01:44;24.13;42.53
65419;DHT22;52027;50.658;14.004;2022-09-16T17:04:10;24.12;42.50
65419;DHT22;52027;50.658;14.004;2022-09-16T17:06:36;24.10;42.53
65419;DHT22;52027;50.658;14.004;2022-09-16T17:09:07;24.12;42.52
65419;DHT22;52027;50.658;14.004;2022-09-16T17:11:33;24.10;42.60
65419;DHT22;52027;50.658;14.004;2022-09-16T17:14:02;24.06;42.64
65419;DHT22;52027;50.658;14.004;2022-09-16T17:16:28;24.05;42.66
65419;DHT22;52027;50.658;14.004;2022-09-16T17:18:54;24.05;42.68
65419;DHT22;52027;50.658;14.004;2022-09-16T17:21:24;24.04;42.70
65419;DHT22;52027;50.658;14.004;2022-09-16T17:23:50;24.02;42.75
65419;DHT22;52027;50.658;14.004;2022-09-16T17:26:17;24.01;42.77
65419;DHT22;52027;50.658;14.004;2022-09-16T17:28:44;23.98;42.75
65419;DHT22;52027;50.658;14.004;2022-09-16T17:31:14;23.98;42.82
65419;DHT22;52027;50.658;14.004;2022-09-16T17:33:40;23.98;42.86
65419;DHT22;52027;50.658;14.004;2022-09-16T17:36:07;23.95;42.87
65419;DHT22;52027;50.658;14.004;2022-09-16T17:38:33;23.94;42.89
65419;DHT22;52027;50.658;14.004;2022-09-16T17:41:06;23.94;42.92
65419;DHT22;52027;50.658;14.004;2022-09-16T17:43:32;23.90;42.98
65419;DHT22;52027;50.658;14.004;2022-09-16T17:46:03;23.92;42.97
65419;DHT22;52027;50.658;14.004;2022-09-16T17:48:29;23.89;43.02
65419;DHT22;52027;50.658;14.004;2022-09-16T17:50:55;23.88;43.05
65419;DHT22;52027;50.658;14.004;2022-09-16T17:53:21;23.89;43.09
65419;DHT22;52027;50.658;14.004;2022-09-16T17:55:47;23.86;43.13
65419;DHT22;52027;50.658;14.004;2022-09-16T17:58:13;23.85;43.17
65419;DHT22;52027;50.658;14.004;2022-09-16T18:00:40;23.84;43.18
65419;DHT22;52027;50.658;14.004;2022-09-16T18:03:05;23.82;43.21
65419;DHT22;52027;50.658;14.004;2022-09-16T18:05:35;23.82;43.23
65419;DHT22;52027;50.658;14.004;2022-09-16T18:08:00;23.81;43.25
65419;DHT22;52027;50.658;14.004;2022-09-16T18:10:26;23.81;43.19
65419;DHT22;52027;50.658;14.004;2022-09-16T18:12:52;23.81;43.26
65419;DHT22;52027;50.658;14.004;2022-09-16T18:15:17;23.81;43.32
65419;DHT22;52027;50.658;14.004;2022-09-16T18:17:43;23.78;43.32
65419;DHT22;52027;50.658;14.004;2022-09-16T18:20:08;23.78;43.29
65419;DHT22;52027;50.658;14.004;2022-09-16T18:22:34;23.75;43.31
65419;DHT22;52027;50.658;14.004;2022-09-16T18:25:00;23.74;43.38
65419;DHT22;52027;50.658;14.004;2022-09-16T18:27:26;23.75;43.38
65419;DHT22;52027;50.658;14.004;2022-09-16T18:29:51;23.75;43.38
65419;DHT22;52027;50.658;14.004;2022-09-16T18:32:17;23.74;43.40
65419;DHT22;52027;50.658;14.004;2022-09-16T18:34:42;23.72;43.44
65419;DHT22;52027;50.658;14.004;2022-09-16T18:37:07;23.72;43.33
65419;DHT22;52027;50.658;14.004;2022-09-16T18:39:33;23.71;43.45